createdAt,value
2022-07-31T00:00:00.277Z,995.58
2022-07-31T00:01:00.276Z,995.59
2022-07-31T00:02:00.265Z,995.53
2022-07-31T00:03:00.317Z,995.56
2022-07-31T00:04:00.247Z,995.57
2022-07-31T00:05:00.237Z,995.55
2022-07-31T00:06:00.247Z,995.56
2022-07-31T00:07:00.526Z,995.55
2022-07-31T00:08:00.751Z,995.57
2022-07-31T00:09:00.213Z,995.56
2022-07-31T00:10:00.223Z,995.56
2022-07-31T00:11:00.195Z,995.56
2022-07-31T00:12:00.189Z,995.57
2022-07-31T00:13:00.212Z,995.60
2022-07-31T00:14:00.171Z,995.59
2022-07-31T00:15:00.170Z,995.60
2022-07-31T00:16:01.157Z,995.60
2022-07-31T00:17:00.513Z,995.58
2022-07-31T00:18:00.141Z,995.70
2022-07-31T00:19:00.137Z,995.67
2022-07-31T00:20:00.175Z,995.67
2022-07-31T00:21:00.117Z,995.64
2022-07-31T00:22:00.118Z,995.71
2022-07-31T00:23:00.098Z,995.67
2022-07-31T00:24:00.093Z,995.70
2022-07-31T00:25:00.092Z,995.63
2022-07-31T00:26:00.081Z,995.68
2022-07-31T00:27:00.306Z,995.63
2022-07-31T00:28:00.062Z,995.62
2022-07-31T00:29:00.074Z,995.59
2022-07-31T00:30:00.072Z,995.59
2022-07-31T00:31:00.067Z,995.64
2022-07-31T00:33:00.490Z,995.57
2022-07-31T00:34:00.483Z,995.58
2022-07-31T00:35:00.481Z,995.50
2022-07-31T00:36:00.470Z,995.50
2022-07-31T00:37:01.003Z,995.55
2022-07-31T00:38:24.891Z,995.51
2022-07-31T00:39:03.540Z,995.54
2022-07-31T00:40:01.540Z,995.57
2022-07-31T00:41:01.536Z,995.52
2022-07-31T00:42:01.515Z,995.51
2022-07-31T00:43:01.499Z,995.57
2022-07-31T00:44:01.492Z,995.48
2022-07-31T00:45:01.486Z,995.48
2022-07-31T00:46:01.481Z,995.52
2022-07-31T00:47:01.800Z,995.50
2022-07-31T00:48:01.462Z,995.48
2022-07-31T00:49:01.478Z,995.42
2022-07-31T00:50:01.461Z,995.44
2022-07-31T00:51:02.359Z,995.44
2022-07-31T00:52:01.435Z,995.42
2022-07-31T00:53:01.423Z,995.40
2022-07-31T00:54:01.600Z,995.46
2022-07-31T00:55:01.421Z,995.46
2022-07-31T00:56:01.399Z,995.45
2022-07-31T00:57:01.708Z,995.49
2022-07-31T00:58:01.418Z,995.43
2022-07-31T00:59:01.378Z,995.49
2022-07-31T01:00:01.375Z,995.56
2022-07-31T01:01:01.415Z,995.50
2022-07-31T01:02:01.359Z,995.50
2022-07-31T01:03:01.341Z,995.46
2022-07-31T01:04:01.337Z,995.47
2022-07-31T01:05:01.332Z,995.49
2022-07-31T01:06:01.326Z,995.48
2022-07-31T01:07:01.771Z,995.44
2022-07-31T01:08:01.305Z,995.44
2022-07-31T01:09:01.305Z,995.46
2022-07-31T01:10:01.299Z,995.45
2022-07-31T01:11:01.292Z,995.44
2022-07-31T01:12:01.292Z,995.44
2022-07-31T01:13:01.280Z,995.35
2022-07-31T01:14:01.273Z,995.36
2022-07-31T01:15:02.950Z,995.44
2022-07-31T01:16:01.251Z,995.40
2022-07-31T01:17:01.797Z,995.39
2022-07-31T01:18:01.233Z,995.42
2022-07-31T01:19:01.220Z,995.45
2022-07-31T01:20:01.215Z,995.46
2022-07-31T01:21:01.210Z,995.47
2022-07-31T01:22:03.938Z,995.40
2022-07-31T01:23:01.197Z,995.40
2022-07-31T01:24:01.182Z,995.41
2022-07-31T01:25:01.173Z,995.37
2022-07-31T01:26:01.171Z,995.34
2022-07-31T01:27:01.536Z,995.37
2022-07-31T01:28:01.158Z,995.35
2022-07-31T01:29:01.154Z,995.38
2022-07-31T01:30:01.136Z,995.39
2022-07-31T01:31:24.230Z,995.34
2022-07-31T01:32:03.123Z,995.37
2022-07-31T01:33:01.112Z,995.35
2022-07-31T01:34:01.111Z,995.30
2022-07-31T01:35:01.102Z,995.26
2022-07-31T01:36:01.122Z,995.25
2022-07-31T01:37:01.600Z,995.28
2022-07-31T01:38:01.079Z,995.21
2022-07-31T01:39:01.070Z,995.23
2022-07-31T01:40:01.073Z,995.18
2022-07-31T01:41:01.053Z,995.23
2022-07-31T01:42:01.467Z,995.21
2022-07-31T01:43:01.052Z,995.23
2022-07-31T01:44:01.032Z,995.25
2022-07-31T01:45:01.028Z,995.24
2022-07-31T01:46:01.017Z,995.22
2022-07-31T01:47:01.464Z,995.19
2022-07-31T01:48:00.994Z,995.19
2022-07-31T01:49:01.000Z,995.22
2022-07-31T01:50:00.999Z,995.15
2022-07-31T01:51:00.973Z,995.18
2022-07-31T01:52:04.370Z,995.19
2022-07-31T01:53:01.008Z,995.24
2022-07-31T01:54:00.962Z,995.19
2022-07-31T01:55:00.939Z,995.19
2022-07-31T01:56:03.601Z,995.17
2022-07-31T01:57:00.940Z,995.17
2022-07-31T01:58:00.911Z,995.17
2022-07-31T01:59:01.909Z,995.19
2022-07-31T02:00:00.907Z,995.16
2022-07-31T02:01:00.950Z,995.16
2022-07-31T02:02:01.354Z,995.19
2022-07-31T02:03:07.697Z,995.14
2022-07-31T02:04:01.867Z,995.14
2022-07-31T02:05:00.854Z,995.12
2022-07-31T02:06:00.841Z,995.07
2022-07-31T02:07:00.840Z,995.14
2022-07-31T02:08:00.837Z,995.16
2022-07-31T02:09:00.823Z,995.15
2022-07-31T02:10:00.815Z,995.11
2022-07-31T02:11:00.804Z,995.13
2022-07-31T02:12:00.797Z,995.19
2022-07-31T02:13:00.803Z,995.15
2022-07-31T02:14:00.782Z,995.14
2022-07-31T02:15:00.789Z,995.21
2022-07-31T02:16:00.762Z,995.17
2022-07-31T02:17:00.761Z,995.18
2022-07-31T02:18:00.759Z,995.19
2022-07-31T02:19:01.144Z,995.17
2022-07-31T02:20:00.867Z,995.18
2022-07-31T02:21:00.731Z,995.20
2022-07-31T02:22:00.946Z,995.17
2022-07-31T02:23:00.711Z,995.16
2022-07-31T02:24:00.707Z,995.11
2022-07-31T02:25:00.694Z,995.16
2022-07-31T02:26:00.681Z,995.16
2022-07-31T02:27:00.677Z,995.16
2022-07-31T02:28:00.667Z,995.19
2022-07-31T02:29:00.668Z,995.14
2022-07-31T02:30:00.651Z,995.08
2022-07-31T02:31:00.645Z,995.12
2022-07-31T02:32:11.618Z,995.11
2022-07-31T02:33:01.623Z,995.03
2022-07-31T02:34:00.615Z,995.07
2022-07-31T02:35:00.603Z,995.05
2022-07-31T02:36:00.600Z,995.10
2022-07-31T02:37:00.603Z,995.09
2022-07-31T02:38:00.590Z,995.15
2022-07-31T02:39:00.572Z,995.16
2022-07-31T02:40:00.565Z,995.10
2022-07-31T02:41:00.560Z,995.08
2022-07-31T02:42:00.705Z,995.13
2022-07-31T02:43:00.545Z,995.10
2022-07-31T02:44:00.535Z,995.06
2022-07-31T02:45:00.541Z,995.10
2022-07-31T02:46:00.548Z,995.03
2022-07-31T02:47:00.516Z,995.03
2022-07-31T02:48:00.499Z,995.06
2022-07-31T02:49:00.544Z,995.04
2022-07-31T02:50:00.486Z,995.03
2022-07-31T02:51:00.492Z,995.02
2022-07-31T02:52:00.571Z,995.01
2022-07-31T02:53:00.459Z,994.99
2022-07-31T02:54:00.456Z,994.99
2022-07-31T02:55:00.447Z,995.00
2022-07-31T02:56:00.443Z,994.99
2022-07-31T02:57:00.438Z,995.00
2022-07-31T02:58:00.420Z,994.97
2022-07-31T02:59:00.426Z,994.93
2022-07-31T03:00:00.413Z,994.95
2022-07-31T03:01:00.516Z,994.96
2022-07-31T03:02:00.638Z,994.98
2022-07-31T03:03:00.395Z,995.01
2022-07-31T03:04:00.380Z,995.01
2022-07-31T03:05:00.371Z,995.00
2022-07-31T03:06:00.370Z,994.92
2022-07-31T03:07:00.371Z,994.89
2022-07-31T03:08:00.343Z,994.95
2022-07-31T03:09:00.352Z,994.91
2022-07-31T03:10:00.331Z,994.88
2022-07-31T03:11:00.321Z,994.94
2022-07-31T03:12:05.028Z,994.85
2022-07-31T03:13:00.305Z,994.88
2022-07-31T03:14:00.311Z,994.88
2022-07-31T03:15:00.290Z,994.86
2022-07-31T03:16:00.282Z,994.85
2022-07-31T03:17:00.272Z,994.81
2022-07-31T03:18:00.263Z,994.85
2022-07-31T03:19:00.270Z,994.84
2022-07-31T03:20:00.244Z,994.88
2022-07-31T03:21:00.238Z,994.88
2022-07-31T03:22:00.680Z,994.88
2022-07-31T03:23:00.220Z,994.88
2022-07-31T03:24:00.230Z,994.88
2022-07-31T03:25:00.208Z,994.90
2022-07-31T03:26:00.196Z,994.89
2022-07-31T03:27:00.189Z,994.85
2022-07-31T03:28:00.188Z,994.89
2022-07-31T03:29:00.186Z,994.84
2022-07-31T03:30:00.190Z,994.95
2022-07-31T03:31:00.173Z,994.89
2022-07-31T03:32:00.545Z,994.88
2022-07-31T03:33:00.148Z,994.94
2022-07-31T03:34:00.150Z,994.93
2022-07-31T03:35:01.134Z,994.92
2022-07-31T03:36:00.123Z,994.89
2022-07-31T03:37:00.119Z,994.87
2022-07-31T03:38:00.109Z,994.90
2022-07-31T03:39:00.102Z,994.90
2022-07-31T03:40:00.124Z,994.88
2022-07-31T03:41:00.108Z,994.85
2022-07-31T03:42:00.250Z,994.92
2022-07-31T03:43:00.076Z,994.89
2022-07-31T03:44:00.072Z,994.85
2022-07-31T03:45:00.067Z,994.89
2022-07-31T03:46:00.040Z,994.95
2022-07-31T03:47:00.032Z,994.91
2022-07-31T03:48:00.029Z,994.90
2022-07-31T03:49:01.056Z,994.90
2022-07-31T03:50:00.011Z,994.97
2022-07-31T03:51:00.018Z,994.92
2022-07-31T03:52:00.162Z,994.93
2022-07-31T03:52:59.987Z,994.96
2022-07-31T03:53:59.976Z,994.96
2022-07-31T03:54:59.970Z,994.98
2022-07-31T03:55:59.967Z,995.00
2022-07-31T03:56:59.957Z,994.99
2022-07-31T03:57:59.947Z,995.03
2022-07-31T03:58:59.934Z,994.94
2022-07-31T04:00:00.017Z,995.01
2022-07-31T04:00:59.946Z,994.97
2022-07-31T04:01:59.908Z,995.03
2022-07-31T04:02:59.903Z,994.96
2022-07-31T04:03:59.896Z,994.98
2022-07-31T04:04:59.958Z,994.97
2022-07-31T04:05:59.896Z,994.99
2022-07-31T04:06:59.882Z,995.02
2022-07-31T04:07:59.880Z,995.00
2022-07-31T04:08:59.857Z,994.95
2022-07-31T04:09:59.857Z,994.95
2022-07-31T04:10:59.850Z,994.97
2022-07-31T04:11:59.836Z,994.97
2022-07-31T04:12:59.835Z,994.96
2022-07-31T04:13:59.821Z,995.00
2022-07-31T04:14:59.832Z,994.96
2022-07-31T04:15:59.821Z,994.99
2022-07-31T04:16:59.796Z,995.03
2022-07-31T04:17:59.800Z,995.02
2022-07-31T04:18:59.909Z,995.03
2022-07-31T04:19:59.768Z,995.06
2022-07-31T04:20:59.771Z,995.01
2022-07-31T04:21:59.755Z,995.03
2022-07-31T04:22:59.745Z,995.06
2022-07-31T04:23:59.743Z,995.08
2022-07-31T04:24:59.730Z,995.12
2022-07-31T04:26:00.484Z,995.07
2022-07-31T04:26:59.713Z,995.13
2022-07-31T04:28:00.513Z,995.08
2022-07-31T04:28:59.700Z,995.12
2022-07-31T04:29:59.701Z,995.06
2022-07-31T04:30:59.698Z,995.04
2022-07-31T04:31:59.679Z,995.03
2022-07-31T04:32:59.679Z,995.04
2022-07-31T04:33:59.661Z,995.02
2022-07-31T04:34:59.655Z,995.02
2022-07-31T04:35:59.701Z,995.05
2022-07-31T04:36:59.638Z,995.05
2022-07-31T04:37:59.628Z,994.99
2022-07-31T04:38:59.620Z,995.06
2022-07-31T04:39:59.617Z,995.07
2022-07-31T04:40:59.611Z,995.06
2022-07-31T04:42:00.911Z,995.06
2022-07-31T04:42:59.587Z,995.05
2022-07-31T04:43:59.597Z,995.11
2022-07-31T04:44:59.577Z,995.11
2022-07-31T04:45:59.605Z,995.10
2022-07-31T04:46:59.580Z,995.10
2022-07-31T04:47:59.555Z,995.09
2022-07-31T04:48:59.626Z,995.15
2022-07-31T04:49:59.553Z,995.14
2022-07-31T04:50:59.528Z,995.14
2022-07-31T04:51:59.529Z,995.13
2022-07-31T04:52:59.513Z,995.16
2022-07-31T04:53:59.511Z,995.20
2022-07-31T04:54:59.494Z,995.19
2022-07-31T04:55:59.488Z,995.19
2022-07-31T04:56:59.478Z,995.13
2022-07-31T04:57:59.475Z,995.18
2022-07-31T04:58:59.467Z,995.24
2022-07-31T05:00:01.372Z,995.25
2022-07-31T05:00:59.444Z,995.27
2022-07-31T05:01:59.521Z,995.21
2022-07-31T05:02:59.438Z,995.20
2022-07-31T05:03:59.425Z,995.25
2022-07-31T05:04:59.415Z,995.26
2022-07-31T05:05:59.401Z,995.20
2022-07-31T05:06:59.402Z,995.25
2022-07-31T05:07:59.396Z,995.22
2022-07-31T05:08:59.379Z,995.26
2022-07-31T05:09:59.362Z,995.32
2022-07-31T05:11:00.371Z,995.23
2022-07-31T05:11:59.362Z,995.26
2022-07-31T05:12:59.356Z,995.29
2022-07-31T05:13:59.348Z,995.29
2022-07-31T05:14:59.338Z,995.27
2022-07-31T05:15:59.326Z,995.26
2022-07-31T05:16:59.314Z,995.28
2022-07-31T05:17:59.317Z,995.30
2022-07-31T05:18:59.307Z,995.27
2022-07-31T05:19:59.304Z,995.24
2022-07-31T05:20:59.304Z,995.29
2022-07-31T05:22:03.934Z,995.25
2022-07-31T05:23:00.265Z,995.29
2022-07-31T05:23:59.263Z,995.25
2022-07-31T05:24:59.259Z,995.26
2022-07-31T05:25:59.245Z,995.22
2022-07-31T05:26:59.244Z,995.24
2022-07-31T05:27:59.274Z,995.25
2022-07-31T05:28:59.228Z,995.25
2022-07-31T05:29:59.218Z,995.31
2022-07-31T05:30:59.216Z,995.28
2022-07-31T05:32:10.125Z,995.20
2022-07-31T05:33:00.225Z,995.20
2022-07-31T05:33:59.201Z,995.23
2022-07-31T05:34:59.173Z,995.26
2022-07-31T05:35:59.187Z,995.24
2022-07-31T05:36:59.166Z,995.26
2022-07-31T05:37:59.160Z,995.26
2022-07-31T05:38:59.144Z,995.28
2022-07-31T05:39:59.959Z,995.24
2022-07-31T05:40:59.132Z,995.21
2022-07-31T05:41:59.119Z,995.19
2022-07-31T05:42:59.118Z,995.19
2022-07-31T05:43:59.098Z,995.23
2022-07-31T05:44:59.111Z,995.20
2022-07-31T05:45:59.094Z,995.22
2022-07-31T05:47:43.827Z,995.20
2022-07-31T05:48:43.822Z,995.17
2022-07-31T05:49:43.815Z,995.24
2022-07-31T05:50:43.804Z,995.20
2022-07-31T05:51:43.807Z,995.22
2022-07-31T05:52:44.887Z,995.18
2022-07-31T05:53:45.783Z,995.24
2022-07-31T05:54:45.867Z,995.22
2022-07-31T05:55:44.864Z,995.20
2022-07-31T05:56:44.868Z,995.21
2022-07-31T05:57:44.842Z,995.19
2022-07-31T05:58:48.307Z,995.24
2022-07-31T05:59:44.827Z,995.16
2022-07-31T06:00:44.848Z,995.16
2022-07-31T06:01:44.879Z,995.16
2022-07-31T06:02:44.799Z,995.15
2022-07-31T06:03:51.623Z,995.18
2022-07-31T06:04:45.783Z,995.13
2022-07-31T06:05:44.778Z,995.14
2022-07-31T06:06:44.773Z,995.12
2022-07-31T06:07:51.257Z,995.17
2022-07-31T06:08:45.762Z,995.10
2022-07-31T06:09:44.746Z,995.18
2022-07-31T06:10:44.753Z,995.21
2022-07-31T06:11:44.732Z,995.12
2022-07-31T06:12:44.725Z,995.12
2022-07-31T06:13:44.718Z,995.16
2022-07-31T06:14:44.701Z,995.09
2022-07-31T06:15:49.216Z,995.14
2022-07-31T06:16:44.686Z,995.19
2022-07-31T06:17:45.068Z,995.15
2022-07-31T06:18:44.667Z,995.15
2022-07-31T06:19:44.664Z,995.20
2022-07-31T06:20:44.658Z,995.15
2022-07-31T06:21:44.646Z,995.14
2022-07-31T06:22:44.638Z,995.14
2022-07-31T06:23:44.662Z,995.12
2022-07-31T06:24:44.627Z,995.16
2022-07-31T06:25:44.610Z,995.10
2022-07-31T06:26:44.601Z,995.10
2022-07-31T06:27:45.002Z,995.14
2022-07-31T06:28:48.599Z,995.16
2022-07-31T06:29:44.586Z,995.14
2022-07-31T06:30:44.569Z,995.15
2022-07-31T06:31:44.579Z,995.13
2022-07-31T06:32:44.553Z,995.11
2022-07-31T06:33:48.103Z,995.09
2022-07-31T06:34:44.538Z,995.12
2022-07-31T06:35:44.531Z,995.11
2022-07-31T06:36:44.520Z,995.08
2022-07-31T06:37:44.519Z,995.08
2022-07-31T06:38:44.530Z,995.08
2022-07-31T06:39:56.065Z,995.10
2022-07-31T06:40:45.483Z,995.08
2022-07-31T06:41:44.476Z,995.09
2022-07-31T06:42:44.467Z,995.12
2022-07-31T06:43:44.466Z,995.12
2022-07-31T06:44:46.422Z,995.02
2022-07-31T06:45:52.004Z,995.09
2022-07-31T06:46:49.042Z,995.07
2022-07-31T06:47:44.441Z,995.03
2022-07-31T06:48:44.424Z,995.02
2022-07-31T06:49:44.447Z,994.99
2022-07-31T06:50:44.516Z,994.97
2022-07-31T06:51:44.399Z,994.98
2022-07-31T06:52:44.391Z,994.97
2022-07-31T06:53:44.388Z,995.05
2022-07-31T06:54:44.372Z,995.01
2022-07-31T06:55:44.808Z,994.96
2022-07-31T06:56:44.404Z,995.05
2022-07-31T06:57:44.346Z,995.07
2022-07-31T06:58:44.366Z,995.04
2022-07-31T06:59:44.333Z,995.05
2022-07-31T07:00:44.337Z,995.07
2022-07-31T07:01:44.399Z,995.07
2022-07-31T07:02:44.308Z,995.08
2022-07-31T07:03:44.307Z,995.07
2022-07-31T07:05:05.401Z,995.09
2022-07-31T07:05:45.591Z,995.10
2022-07-31T07:06:45.277Z,995.05
2022-07-31T07:07:44.273Z,995.06
2022-07-31T07:08:44.269Z,995.06
2022-07-31T07:09:44.254Z,995.11
2022-07-31T07:10:44.246Z,995.02
2022-07-31T07:11:44.244Z,995.06
2022-07-31T07:12:44.232Z,995.06
2022-07-31T07:13:45.900Z,995.07
2022-07-31T07:14:44.218Z,995.09
2022-07-31T07:15:44.211Z,995.04
2022-07-31T07:16:44.196Z,995.07
2022-07-31T07:17:44.188Z,995.04
2022-07-31T07:18:44.187Z,995.04
2022-07-31T07:19:44.175Z,994.99
2022-07-31T07:20:44.173Z,995.04
2022-07-31T07:21:44.163Z,995.04
2022-07-31T07:22:44.149Z,995.00
2022-07-31T07:23:44.141Z,994.93
2022-07-31T07:24:44.138Z,994.92
2022-07-31T07:25:44.141Z,994.90
2022-07-31T07:26:44.122Z,994.89
2022-07-31T07:27:44.112Z,994.87
2022-07-31T07:28:44.106Z,994.87
2022-07-31T07:29:44.095Z,994.89
2022-07-31T07:30:44.091Z,994.89
2022-07-31T07:31:44.084Z,994.84
2022-07-31T07:32:44.070Z,994.83
2022-07-31T07:33:44.061Z,994.84
2022-07-31T07:34:44.071Z,994.88
2022-07-31T07:35:44.049Z,994.78
2022-07-31T07:36:44.040Z,994.84
2022-07-31T07:37:44.036Z,994.81
2022-07-31T07:38:44.022Z,994.81
2022-07-31T07:39:44.019Z,994.80
2022-07-31T07:40:44.007Z,994.77
2022-07-31T07:41:44.004Z,994.81
2022-07-31T07:42:43.992Z,994.74
2022-07-31T07:43:44.024Z,994.70
2022-07-31T07:44:43.976Z,994.70
2022-07-31T07:45:43.966Z,994.70
2022-07-31T07:46:43.966Z,994.67
2022-07-31T07:48:02.808Z,994.64
2022-07-31T07:48:44.967Z,994.64
2022-07-31T07:49:43.941Z,994.66
2022-07-31T07:50:43.932Z,994.68
2022-07-31T07:51:58.851Z,994.67
2022-07-31T07:52:44.904Z,994.59
2022-07-31T07:53:44.906Z,994.66
2022-07-31T07:54:43.898Z,994.69
2022-07-31T07:55:43.898Z,994.64
2022-07-31T07:56:43.921Z,994.68
2022-07-31T07:57:43.871Z,994.62
2022-07-31T07:58:43.862Z,994.67
2022-07-31T07:59:43.858Z,994.70
2022-07-31T08:00:43.913Z,994.69
2022-07-31T08:01:43.848Z,994.72
2022-07-31T08:02:43.838Z,994.67
2022-07-31T08:03:48.786Z,994.70
2022-07-31T08:04:47.620Z,994.62
2022-07-31T08:05:44.822Z,994.63
2022-07-31T08:06:43.801Z,994.70
2022-07-31T08:07:43.791Z,994.63
2022-07-31T08:08:43.791Z,994.62
2022-07-31T08:09:44.745Z,994.63
2022-07-31T08:10:44.767Z,994.62
2022-07-31T08:11:43.757Z,994.71
2022-07-31T08:12:43.753Z,994.59
2022-07-31T08:13:49.268Z,994.63
2022-07-31T08:14:45.732Z,994.58
2022-07-31T08:15:43.723Z,994.60
2022-07-31T08:16:43.721Z,994.60
2022-07-31T08:17:43.712Z,994.59
2022-07-31T08:18:43.702Z,994.57
2022-07-31T08:19:46.167Z,994.55
2022-07-31T08:20:44.685Z,994.58
2022-07-31T08:21:43.677Z,994.56
2022-07-31T08:22:43.674Z,994.55
2022-07-31T08:23:43.669Z,994.54
2022-07-31T08:24:43.656Z,994.57
2022-07-31T08:25:43.644Z,994.51
2022-07-31T08:26:43.637Z,994.54
2022-07-31T08:27:43.635Z,994.53
2022-07-31T08:28:50.832Z,994.57
2022-07-31T08:29:44.619Z,994.51
2022-07-31T08:30:43.615Z,994.50
2022-07-31T08:31:49.315Z,994.54
2022-07-31T08:32:44.583Z,994.46
2022-07-31T08:33:43.583Z,994.43
2022-07-31T08:34:43.574Z,994.52
2022-07-31T08:35:44.829Z,994.51
2022-07-31T08:36:45.258Z,994.47
2022-07-31T08:37:50.826Z,994.45
2022-07-31T08:38:44.541Z,994.54
2022-07-31T08:39:43.535Z,994.50
2022-07-31T08:40:43.796Z,994.48
2022-07-31T08:41:43.523Z,994.46
2022-07-31T08:42:43.520Z,994.48
2022-07-31T08:43:59.896Z,994.46
2022-07-31T08:44:45.335Z,994.49
2022-07-31T08:45:43.491Z,994.45
2022-07-31T08:46:43.483Z,994.46
2022-07-31T08:47:43.486Z,994.50
2022-07-31T08:48:43.488Z,994.42
2022-07-31T08:49:43.457Z,994.46
2022-07-31T08:50:43.451Z,994.40
2022-07-31T08:51:51.449Z,994.38
2022-07-31T08:52:44.437Z,994.38
2022-07-31T08:53:43.429Z,994.41
2022-07-31T08:54:43.420Z,994.43
2022-07-31T08:55:56.795Z,994.46
2022-07-31T08:56:44.404Z,994.43
2022-07-31T08:57:43.386Z,994.43
2022-07-31T08:58:44.384Z,994.47
2022-07-31T08:59:43.378Z,994.39
2022-07-31T09:00:43.427Z,994.41
2022-07-31T09:01:43.465Z,994.36
2022-07-31T09:02:43.346Z,994.41
2022-07-31T09:03:44.351Z,994.43
2022-07-31T09:04:43.843Z,994.44
2022-07-31T09:05:43.340Z,994.40
2022-07-31T09:06:43.348Z,994.38
2022-07-31T09:07:43.335Z,994.30
2022-07-31T09:08:43.315Z,994.32
2022-07-31T09:09:52.155Z,994.37
2022-07-31T09:10:49.663Z,994.27
2022-07-31T09:11:46.270Z,994.30
2022-07-31T09:12:43.277Z,994.28
2022-07-31T09:13:43.272Z,994.30
2022-07-31T09:14:44.261Z,994.28
2022-07-31T09:15:43.265Z,994.29
2022-07-31T09:16:43.246Z,994.25
2022-07-31T09:17:53.816Z,994.29
2022-07-31T09:18:44.227Z,994.28
2022-07-31T09:19:52.865Z,994.18
2022-07-31T09:20:44.220Z,994.21
2022-07-31T09:21:43.206Z,994.22
2022-07-31T09:22:43.200Z,994.19
2022-07-31T09:23:43.189Z,994.20
2022-07-31T09:24:43.184Z,994.13
2022-07-31T09:25:43.199Z,994.13
2022-07-31T09:26:43.169Z,994.15
2022-07-31T09:27:43.167Z,994.13
2022-07-31T09:28:43.155Z,994.14
2022-07-31T09:29:43.780Z,994.12
2022-07-31T09:30:55.616Z,994.09
2022-07-31T09:31:44.126Z,994.12
2022-07-31T09:32:43.124Z,994.07
2022-07-31T09:33:45.811Z,994.06
2022-07-31T09:34:44.101Z,994.13
2022-07-31T09:35:43.094Z,994.09
2022-07-31T09:36:43.098Z,994.09
2022-07-31T09:37:43.081Z,994.08
2022-07-31T09:38:43.072Z,994.13
2022-07-31T09:39:52.125Z,994.11
2022-07-31T09:40:55.497Z,994.13
2022-07-31T09:42:01.141Z,994.14
2022-07-31T09:42:45.795Z,994.06
2022-07-31T09:43:51.673Z,994.11
2022-07-31T09:44:44.027Z,994.14
2022-07-31T09:45:48.481Z,994.09
2022-07-31T09:46:44.016Z,994.13
2022-07-31T09:47:43.002Z,994.02
2022-07-31T09:48:44.133Z,994.04
2022-07-31T09:49:42.988Z,994.02
2022-07-31T09:50:42.977Z,994.03
2022-07-31T09:51:42.989Z,993.99
2022-07-31T09:52:42.954Z,994.02
2022-07-31T09:53:43.975Z,993.99
2022-07-31T09:54:42.935Z,993.99
2022-07-31T09:55:42.982Z,994.01
2022-07-31T09:56:42.938Z,994.02
2022-07-31T09:57:42.924Z,994.01
2022-07-31T09:58:43.928Z,994.00
2022-07-31T09:59:42.905Z,993.97
2022-07-31T10:00:43.002Z,993.90
2022-07-31T10:01:42.889Z,993.92
2022-07-31T10:02:42.896Z,993.91
2022-07-31T10:03:42.877Z,993.89
2022-07-31T10:04:43.376Z,993.87
2022-07-31T10:05:42.863Z,993.83
2022-07-31T10:06:42.850Z,993.88
2022-07-31T10:07:42.837Z,993.86
2022-07-31T10:08:42.833Z,993.85
2022-07-31T10:09:42.870Z,993.79
2022-07-31T10:10:42.824Z,993.73
2022-07-31T10:11:42.809Z,993.78
2022-07-31T10:12:42.813Z,993.73
2022-07-31T10:13:42.792Z,993.71
2022-07-31T10:14:42.784Z,993.71
2022-07-31T10:15:42.798Z,993.70
2022-07-31T10:16:42.771Z,993.74
2022-07-31T10:17:42.763Z,993.70
2022-07-31T10:18:44.620Z,993.70
2022-07-31T10:19:43.746Z,993.71
2022-07-31T10:20:42.749Z,993.71
2022-07-31T10:21:42.729Z,993.73
2022-07-31T10:22:42.753Z,993.65
2022-07-31T10:23:42.718Z,993.64
2022-07-31T10:24:42.708Z,993.59
2022-07-31T10:25:42.705Z,993.68
2022-07-31T10:27:00.179Z,993.66
2022-07-31T10:27:44.725Z,993.67
2022-07-31T10:28:42.685Z,993.67
2022-07-31T10:29:42.665Z,993.59
2022-07-31T10:30:42.656Z,993.61
2022-07-31T10:31:42.660Z,993.58
2022-07-31T10:32:42.737Z,993.59
2022-07-31T10:33:44.428Z,993.54
2022-07-31T10:34:43.636Z,993.53
2022-07-31T10:35:42.619Z,993.50
2022-07-31T10:36:42.639Z,993.51
2022-07-31T10:37:42.609Z,993.46
2022-07-31T10:38:42.596Z,993.44
2022-07-31T10:39:42.595Z,993.48
2022-07-31T10:40:43.040Z,993.45
2022-07-31T10:41:42.587Z,993.37
2022-07-31T10:42:42.596Z,993.45
2022-07-31T10:43:42.558Z,993.39
2022-07-31T10:44:42.547Z,993.36
2022-07-31T10:45:42.557Z,993.35
2022-07-31T10:46:42.534Z,993.34
2022-07-31T10:47:48.912Z,993.33
2022-07-31T10:48:43.517Z,993.29
2022-07-31T10:49:42.561Z,993.29
2022-07-31T10:50:42.507Z,993.30
2022-07-31T10:51:42.504Z,993.29
2022-07-31T10:52:42.510Z,993.29
2022-07-31T10:53:51.640Z,993.34
2022-07-31T10:54:43.461Z,993.33
2022-07-31T10:55:43.475Z,993.29
2022-07-31T10:56:42.465Z,993.23
2022-07-31T10:57:55.319Z,993.15
2022-07-31T10:58:43.450Z,993.14
2022-07-31T10:59:44.783Z,993.20
2022-07-31T11:00:43.445Z,993.18
2022-07-31T11:01:42.434Z,993.23
2022-07-31T11:02:46.324Z,993.23
2022-07-31T11:03:42.418Z,993.13
2022-07-31T11:04:42.398Z,993.12
2022-07-31T11:06:02.163Z,993.08
2022-07-31T11:06:43.426Z,993.08
2022-07-31T11:07:42.383Z,993.10
2022-07-31T11:08:42.386Z,993.10
2022-07-31T11:09:50.698Z,993.18
2022-07-31T11:10:43.370Z,993.11
2022-07-31T11:11:42.357Z,993.14
2022-07-31T11:12:42.349Z,993.10
2022-07-31T11:13:42.340Z,993.12
2022-07-31T11:14:42.327Z,993.10
2022-07-31T11:15:42.320Z,993.07
2022-07-31T11:16:42.309Z,993.08
2022-07-31T11:18:22.600Z,993.09
2022-07-31T11:18:43.297Z,993.10
2022-07-31T11:19:42.288Z,993.08
2022-07-31T11:20:42.277Z,993.12
2022-07-31T11:21:42.283Z,993.11
2022-07-31T11:22:42.268Z,993.09
2022-07-31T11:24:02.236Z,993.05
2022-07-31T11:24:43.266Z,993.07
2022-07-31T11:25:42.246Z,993.06
2022-07-31T11:26:42.372Z,993.01
2022-07-31T11:27:43.225Z,993.00
2022-07-31T11:28:42.221Z,992.99
2022-07-31T11:29:59.964Z,992.97
2022-07-31T11:30:43.201Z,993.05
2022-07-31T11:31:42.198Z,993.00
2022-07-31T11:32:42.183Z,992.92
2022-07-31T11:33:42.777Z,992.92
2022-07-31T11:34:42.836Z,992.91
2022-07-31T11:35:42.157Z,992.83
2022-07-31T11:36:42.854Z,992.96
2022-07-31T11:37:56.362Z,992.87
2022-07-31T11:38:43.134Z,992.90
2022-07-31T11:39:42.143Z,992.89
2022-07-31T11:40:43.117Z,992.93
2022-07-31T11:41:44.064Z,993.01
2022-07-31T11:42:42.103Z,992.98
2022-07-31T11:43:42.099Z,992.96
2022-07-31T11:44:42.092Z,993.01
2022-07-31T11:45:42.078Z,993.02
2022-07-31T11:46:42.071Z,992.94
2022-07-31T11:48:12.642Z,992.98
2022-07-31T11:48:45.589Z,993.03
2022-07-31T11:49:48.426Z,992.95
2022-07-31T11:50:43.074Z,992.96
2022-07-31T11:51:42.037Z,992.92
2022-07-31T11:52:42.025Z,992.94
2022-07-31T11:53:42.022Z,992.92
2022-07-31T11:54:42.019Z,992.89
2022-07-31T11:55:42.005Z,992.93
2022-07-31T11:56:43.843Z,992.85
2022-07-31T11:57:51.523Z,992.86
2022-07-31T11:58:42.972Z,992.85
2022-07-31T11:59:45.536Z,992.81
2022-07-31T12:00:41.962Z,992.84
2022-07-31T12:01:41.950Z,992.84
2022-07-31T12:02:41.986Z,992.86
2022-07-31T12:03:41.941Z,992.82
2022-07-31T12:04:41.932Z,992.83
2022-07-31T12:05:41.921Z,992.84
2022-07-31T12:06:41.917Z,992.83
2022-07-31T12:07:41.904Z,992.85
2022-07-31T12:08:41.904Z,992.82
2022-07-31T12:10:00.247Z,992.87
2022-07-31T12:10:42.886Z,992.81
2022-07-31T12:11:41.872Z,992.81
2022-07-31T12:12:41.866Z,992.83
2022-07-31T12:13:41.866Z,992.80
2022-07-31T12:14:41.856Z,992.80
2022-07-31T12:15:41.844Z,992.83
2022-07-31T12:16:41.839Z,992.75
2022-07-31T12:17:41.819Z,992.79
2022-07-31T12:18:42.818Z,992.71
2022-07-31T12:19:41.855Z,992.70
2022-07-31T12:20:41.807Z,992.68
2022-07-31T12:21:41.839Z,992.64
2022-07-31T12:22:41.793Z,992.61
2022-07-31T12:23:42.126Z,992.66
2022-07-31T12:24:41.770Z,992.63
2022-07-31T12:25:41.764Z,992.60
2022-07-31T12:26:41.758Z,992.60
2022-07-31T12:27:41.749Z,992.59
2022-07-31T12:28:41.746Z,992.63
2022-07-31T12:29:41.785Z,992.60